createdAt,value
2019-05-23T00:01:56.660Z,24.90
2019-05-23T00:04:49.436Z,24.23
2019-05-23T00:07:35.271Z,25.53
2019-05-23T00:10:22.131Z,26.97
2019-05-23T00:13:00.623Z,24.83
2019-05-23T00:15:35.416Z,24.77
2019-05-23T00:52:28.968Z,26.73
2019-05-23T00:54:55.163Z,25.50
2019-05-23T00:57:22.213Z,24.50
2019-05-23T00:59:49.271Z,25.47
2019-05-23T01:02:15.704Z,26.23
2019-05-23T01:04:42.066Z,23.87
2019-05-23T01:07:08.919Z,24.73
2019-05-23T01:09:35.731Z,24.20
2019-05-23T01:12:01.889Z,25.83
2019-05-23T01:14:29.347Z,23.90
2019-05-23T01:16:56.628Z,24.83
2019-05-23T01:19:23.470Z,25.63
2019-05-23T01:21:54.861Z,25.07
2019-05-23T01:24:27.443Z,26.33
2019-05-23T01:26:54.112Z,23.87
2019-05-23T01:29:21.663Z,23.67
2019-05-23T01:31:50.411Z,23.97
2019-05-23T01:34:17.359Z,25.10
2019-05-23T01:36:45.246Z,24.80
2019-05-23T01:39:11.975Z,26.17
2019-05-23T01:41:38.924Z,24.60
2019-05-23T01:44:05.571Z,25.77
2019-05-23T01:46:32.940Z,25.50
2019-05-23T01:48:59.219Z,25.37
2019-05-23T01:51:25.912Z,25.33
2019-05-23T01:53:52.058Z,22.43
2019-05-23T01:56:18.612Z,24.70
2019-05-23T01:58:45.065Z,23.63
2019-05-23T02:01:11.831Z,24.30
2019-05-23T02:03:38.587Z,25.07
2019-05-23T02:06:05.071Z,24.97
2019-05-23T02:08:31.441Z,23.03
2019-05-23T02:10:58.094Z,24.37
2019-05-23T02:13:24.289Z,24.47
2019-05-23T02:15:51.636Z,22.97
2019-05-23T02:18:19.689Z,26.43
2019-05-23T02:20:46.569Z,24.17
2019-05-23T02:23:15.827Z,24.47
2019-05-23T02:25:42.106Z,25.77
2019-05-23T02:28:09.475Z,24.40
2019-05-23T02:30:37.137Z,25.90
2019-05-23T02:33:04.309Z,23.37
2019-05-23T02:35:30.851Z,23.90
2019-05-23T02:38:11.667Z,24.87
2019-05-23T02:40:55.666Z,24.43
2019-05-23T02:43:23.735Z,27.07
2019-05-23T02:45:52.070Z,23.57
2019-05-23T02:48:35.256Z,25.67
2019-05-23T04:52:22.645Z,30.90
2019-05-23T08:59:53.942Z,19.70
2019-05-23T09:02:21.308Z,20.20
2019-05-23T09:05:03.439Z,20.90
2019-05-23T09:07:16.975Z,20.17
2019-05-23T09:09:43.356Z,18.37
2019-05-23T09:12:10.260Z,18.43
2019-05-23T09:14:36.794Z,16.40
2019-05-23T09:17:03.842Z,18.87
2019-05-23T09:19:30.204Z,19.90
2019-05-23T09:21:58.068Z,18.20
2019-05-23T09:24:24.636Z,18.47
2019-05-23T09:26:51.503Z,18.07
2019-05-23T09:29:17.786Z,17.47
2019-05-23T09:31:44.125Z,12.97
2019-05-23T09:34:10.799Z,14.63
2019-05-23T09:36:36.944Z,14.57
2019-05-23T09:41:31.880Z,11.97
2019-05-23T09:43:58.158Z,15.43
2019-05-23T09:46:25.409Z,11.60
2019-05-23T09:48:51.891Z,12.33
2019-05-23T09:51:18.358Z,16.00
2019-05-23T09:53:47.416Z,16.07
2019-05-23T09:56:14.141Z,15.27
2019-05-23T09:58:40.653Z,15.07
2019-05-23T10:01:07.026Z,13.83
2019-05-23T10:03:33.332Z,14.33
2019-05-23T10:05:59.684Z,12.90
2019-05-23T10:08:26.147Z,12.83
2019-05-23T10:10:52.307Z,12.97
2019-05-23T10:13:18.660Z,12.77
2019-05-23T10:15:50.578Z,13.57
2019-05-23T10:18:21.043Z,13.30
2019-05-23T10:20:47.300Z,13.10
2019-05-23T10:23:13.936Z,12.30
2019-05-23T10:25:40.162Z,13.03
2019-05-23T10:28:06.626Z,14.13
2019-05-23T10:30:32.930Z,12.50
2019-05-23T10:32:59.162Z,12.73
2019-05-23T10:35:26.187Z,14.80
2019-05-23T10:37:52.347Z,14.73
2019-05-23T10:40:19.840Z,15.83
2019-05-23T10:42:46.107Z,13.47
2019-05-23T10:45:12.585Z,13.03
2019-05-23T10:47:38.808Z,13.53
2019-05-23T10:50:08.445Z,13.77
2019-05-23T10:52:34.916Z,12.30
2019-05-23T10:55:01.187Z,15.07
2019-05-23T10:57:27.955Z,13.90
2019-05-23T10:59:54.149Z,9.97
2019-05-23T11:02:20.504Z,11.53
2019-05-23T11:04:46.665Z,9.37
2019-05-23T11:07:13.630Z,10.17
2019-05-23T11:09:42.460Z,10.33
2019-05-23T11:12:09.661Z,12.77
2019-05-23T11:14:36.026Z,14.63
2019-05-23T11:17:03.089Z,11.57
2019-05-23T11:19:29.410Z,11.13
2019-05-23T11:21:56.173Z,11.43
2019-05-23T11:24:23.561Z,11.73
2019-05-23T11:26:49.904Z,12.70
2019-05-23T11:29:16.164Z,11.07
2019-05-23T11:31:42.715Z,9.67
2019-05-23T11:34:09.187Z,14.30
2019-05-23T11:36:36.831Z,11.80
2019-05-23T11:39:06.455Z,12.80
2019-05-23T11:41:33.021Z,10.57
2019-05-23T11:43:59.491Z,11.27
2019-05-23T11:46:27.571Z,8.53
2019-05-23T11:48:54.528Z,8.10
2019-05-23T11:51:25.164Z,8.57
2019-05-23T11:54:06.001Z,10.00
2019-05-23T11:56:18.544Z,8.63
2019-05-23T11:58:44.983Z,8.73
2019-05-23T12:01:21.480Z,6.97
2019-05-23T12:03:49.914Z,7.37
2019-05-23T12:06:16.681Z,7.27
2019-05-23T12:08:43.136Z,10.83
2019-05-23T12:11:09.699Z,6.73
2019-05-23T12:13:35.983Z,9.57
2019-05-23T12:16:03.322Z,6.33
2019-05-23T12:18:29.473Z,6.27
2019-05-23T12:20:59.444Z,5.93
2019-05-23T12:23:24.041Z,7.87
2019-05-23T12:25:50.403Z,6.47
2019-05-23T12:28:19.498Z,6.03
2019-05-23T12:30:45.879Z,5.13
2019-05-23T12:33:12.026Z,6.27
2019-05-23T12:35:39.252Z,5.70
2019-05-23T12:38:06.104Z,7.23
2019-05-23T12:40:32.563Z,6.57
2019-05-23T12:42:58.720Z,7.07
2019-05-23T12:45:24.998Z,5.40
2019-05-23T12:47:55.745Z,6.77
2019-05-23T12:50:26.596Z,6.13
2019-05-23T12:52:52.786Z,7.23
2019-05-23T12:55:19.024Z,4.53
2019-05-23T12:57:45.180Z,5.70
2019-05-23T13:00:16.132Z,5.93
2019-05-23T13:02:42.821Z,7.97
2019-05-23T13:05:09.686Z,6.97
2019-05-23T13:07:36.920Z,6.73
2019-05-23T13:10:05.259Z,6.30
2019-05-23T13:12:31.492Z,6.13
2019-05-23T13:14:58.845Z,7.73
2019-05-23T13:17:25.461Z,7.63
2019-05-23T13:19:51.607Z,8.13
2019-05-23T13:22:17.876Z,7.97
2019-05-23T13:24:52.499Z,7.20
2019-05-23T13:27:13.223Z,7.10
2019-05-23T13:29:41.392Z,7.10
2019-05-23T13:32:09.273Z,7.20
2019-05-23T13:34:35.600Z,5.00
2019-05-23T13:37:02.794Z,4.87
2019-05-23T13:39:29.239Z,5.00
2019-05-23T13:41:55.409Z,6.77
2019-05-23T13:44:33.965Z,6.17
2019-05-23T13:46:50.133Z,6.23
2019-05-23T13:49:17.039Z,5.50
2019-05-23T13:51:43.711Z,5.97
2019-05-23T13:54:10.158Z,8.13
2019-05-23T13:56:36.494Z,5.40
2019-05-23T13:59:03.012Z,5.93
2019-05-23T14:01:29.417Z,6.40
2019-05-23T14:03:56.071Z,5.30
2019-05-23T14:06:22.428Z,5.77
2019-05-23T14:08:48.796Z,5.07
2019-05-23T14:11:15.100Z,4.80
2019-05-23T14:13:42.584Z,4.93
2019-05-23T14:16:09.169Z,3.87
2019-05-23T14:18:38.204Z,5.60
2019-05-23T14:21:04.968Z,5.27
2019-05-23T14:23:32.627Z,4.00
2019-05-23T14:26:00.499Z,5.97
2019-05-23T14:28:28.875Z,5.97
2019-05-23T14:31:03.571Z,4.23
2019-05-23T14:33:34.585Z,6.30
2019-05-23T14:36:15.087Z,3.97
2019-05-23T14:38:41.762Z,6.50
2019-05-23T14:41:08.809Z,4.27
2019-05-23T14:43:36.122Z,4.10
2019-05-23T14:46:07.820Z,7.93
2019-05-23T14:48:38.418Z,5.70
2019-05-23T14:51:09.251Z,3.67
2019-05-23T14:53:38.088Z,8.43
2019-05-23T14:56:05.760Z,3.30
2019-05-23T14:58:32.242Z,4.93
2019-05-23T15:00:59.307Z,5.13
2019-05-23T15:03:25.997Z,4.17
2019-05-23T15:05:53.560Z,3.70
2019-05-23T15:08:20.678Z,4.60
2019-05-23T15:10:46.940Z,4.63
2019-05-23T15:13:13.229Z,6.63
2019-05-23T15:15:39.374Z,3.37
2019-05-23T15:18:06.132Z,5.13
2019-05-23T15:20:32.475Z,6.10
2019-05-23T15:23:00.157Z,5.07
2019-05-23T15:25:26.674Z,5.47
2019-05-23T15:27:53.045Z,4.03
2019-05-23T15:30:19.517Z,5.67
2019-05-23T15:32:45.671Z,4.50
2019-05-23T15:35:12.565Z,4.97
2019-05-23T15:37:38.726Z,4.93
2019-05-23T15:40:05.491Z,3.63
2019-05-23T15:42:31.843Z,5.03
2019-05-23T15:44:58.309Z,5.20
2019-05-23T15:47:26.592Z,5.53
2019-05-23T15:52:47.107Z,3.77
2019-05-23T15:55:16.006Z,4.93
2019-05-23T15:57:44.311Z,4.53
2019-05-23T16:00:29.770Z,4.60
2019-05-23T16:03:07.675Z,4.77
2019-05-23T16:05:34.289Z,6.27
2019-05-23T16:08:00.732Z,5.13
2019-05-23T16:10:28.007Z,5.00
2019-05-23T16:12:54.206Z,2.63
2019-05-23T16:15:20.509Z,5.83
2019-05-23T16:17:46.892Z,5.27
2019-05-23T16:20:13.467Z,6.90
2019-05-23T16:22:39.621Z,3.67
2019-05-23T16:25:06.185Z,4.60
2019-05-23T16:27:32.587Z,6.03
2019-05-23T16:30:00.432Z,3.43
2019-05-23T16:32:27.012Z,3.90
2019-05-23T16:34:53.179Z,2.57
2019-05-23T16:37:19.915Z,4.03
2019-05-23T16:39:48.623Z,5.30
2019-05-23T16:42:15.094Z,5.30
2019-05-23T16:44:41.618Z,4.20
2019-05-23T16:47:07.996Z,3.60
2019-05-23T16:49:34.161Z,4.43
2019-05-23T16:52:00.621Z,7.10
2019-05-23T16:54:28.696Z,4.30
2019-05-23T16:57:02.981Z,7.23
2019-05-23T16:59:31.087Z,8.83
2019-05-23T17:02:06.633Z,7.10
2019-05-23T17:04:41.259Z,5.53
2019-05-23T17:07:12.610Z,5.47
2019-05-23T17:09:44.253Z,5.20
2019-05-23T17:12:15.189Z,5.50
2019-05-23T17:14:47.035Z,5.93
2019-05-23T17:17:42.908Z,4.93
2019-05-23T17:19:51.090Z,5.93
2019-05-23T17:22:36.152Z,5.43
2019-05-23T17:25:10.015Z,6.70
2019-05-23T17:27:44.020Z,8.23
2019-05-23T17:30:12.800Z,6.20
2019-05-23T17:32:39.153Z,5.80
2019-05-23T17:35:05.885Z,6.43
2019-05-23T17:37:32.735Z,6.53
2019-05-23T17:39:59.097Z,5.20
2019-05-23T17:42:25.490Z,5.47
2019-05-23T17:44:51.647Z,4.83
2019-05-23T17:47:18.086Z,4.70
2019-05-23T17:49:45.351Z,4.83
2019-05-23T17:52:12.002Z,6.00
2019-05-23T17:54:38.766Z,5.17
2019-05-23T17:57:05.412Z,5.90
2019-05-23T17:59:31.631Z,6.10
2019-05-23T18:01:57.976Z,6.27
2019-05-23T18:04:24.147Z,6.77
2019-05-23T18:06:50.952Z,11.37
2019-05-23T18:09:17.814Z,6.73
2019-05-23T18:11:44.428Z,9.17
2019-05-23T18:14:11.616Z,6.73
2019-05-23T18:16:37.775Z,7.70
2019-05-23T18:19:05.080Z,7.90
2019-05-23T18:21:32.135Z,6.13
2019-05-23T18:23:59.215Z,8.40
2019-05-23T18:26:25.884Z,7.60
2019-05-23T18:28:52.964Z,6.73
2019-05-23T18:31:21.150Z,8.10
2019-05-23T18:33:47.922Z,8.17
2019-05-23T18:36:14.802Z,8.93
2019-05-23T18:38:42.349Z,9.30
2019-05-23T18:41:09.556Z,7.63
2019-05-23T18:43:37.471Z,6.33
2019-05-23T18:46:08.612Z,6.07
2019-05-23T18:48:35.488Z,4.60
2019-05-23T18:51:02.345Z,7.63
2019-05-23T18:53:29.111Z,4.13
2019-05-23T18:55:55.279Z,5.17
2019-05-23T18:58:21.651Z,3.77
2019-05-23T19:01:01.533Z,4.90
2019-05-23T19:03:28.940Z,4.77
2019-05-23T19:05:55.093Z,4.50
2019-05-23T19:08:22.573Z,4.03
2019-05-23T19:10:48.923Z,3.43
2019-05-23T19:13:15.089Z,3.63
2019-05-23T19:15:41.652Z,5.67
2019-05-23T19:18:08.116Z,4.37
2019-05-23T19:20:34.907Z,4.40
2019-05-23T19:23:01.464Z,3.57
2019-05-23T19:25:27.760Z,3.97
2019-05-23T19:27:54.211Z,3.20
2019-05-23T19:30:21.025Z,3.97
2019-05-23T19:32:47.420Z,3.93
2019-05-23T19:35:14.634Z,4.10
2019-05-23T19:37:40.877Z,4.30
2019-05-23T19:40:08.758Z,4.73
2019-05-23T19:42:35.340Z,4.00
2019-05-23T19:45:03.517Z,3.90
2019-05-23T19:47:29.959Z,7.03
2019-05-23T19:49:56.122Z,3.80
2019-05-23T19:52:22.570Z,3.60
2019-05-23T19:54:48.955Z,3.50
2019-05-23T19:57:15.720Z,3.58
2019-05-23T19:59:42.760Z,4.00
2019-05-23T20:02:11.667Z,2.63
2019-05-23T20:04:42.926Z,3.57
2019-05-23T20:07:10.137Z,2.97
2019-05-23T20:09:36.788Z,4.53
2019-05-23T20:12:03.847Z,4.33
2019-05-23T20:14:30.016Z,4.07
2019-05-23T20:16:56.584Z,5.40
2019-05-23T20:19:23.029Z,2.93
2019-05-23T20:21:49.442Z,3.97
2019-05-23T20:24:15.773Z,6.63
2019-05-23T20:26:42.200Z,3.57
2019-05-23T20:29:08.555Z,4.07
2019-05-23T20:31:35.280Z,4.17
2019-05-23T20:34:01.962Z,3.80
2019-05-23T20:36:28.267Z,3.33
2019-05-23T20:38:54.447Z,7.53
2019-05-23T20:41:21.310Z,4.43
2019-05-23T20:43:47.559Z,4.03
2019-05-23T20:46:13.862Z,5.53
2019-05-23T20:48:40.037Z,4.40
2019-05-23T20:51:06.238Z,3.70
2019-05-23T20:53:32.585Z,4.17
2019-05-23T20:55:58.747Z,5.23
2019-05-23T20:58:24.898Z,3.63
2019-05-23T21:00:55.815Z,4.03
2019-05-23T21:03:23.664Z,4.47
2019-05-23T21:05:50.165Z,3.77
2019-05-23T21:08:16.522Z,6.07
2019-05-23T21:10:45.098Z,4.70
2019-05-23T21:13:11.244Z,5.47
2019-05-23T21:15:40.535Z,5.23
2019-05-23T21:18:05.971Z,5.27
2019-05-23T21:20:32.237Z,4.67
2019-05-23T21:22:58.601Z,5.00
2019-05-23T21:25:25.652Z,3.90
2019-05-23T21:27:51.899Z,6.13
2019-05-23T21:30:18.184Z,4.60
2019-05-23T21:32:44.537Z,5.23
2019-05-23T21:35:10.915Z,4.43
2019-05-23T21:37:37.061Z,4.40
2019-05-23T21:40:06.325Z,5.33
2019-05-23T21:42:46.807Z,5.03
2019-05-23T21:45:00.535Z,6.90
2019-05-23T21:47:26.687Z,5.67
2019-05-23T21:49:52.969Z,5.20
2019-05-23T21:52:19.344Z,5.50
2019-05-23T21:54:45.746Z,5.70
2019-05-23T21:57:12.236Z,4.63
2019-05-23T21:59:38.376Z,5.60
2019-05-23T22:02:09.721Z,4.37
2019-05-23T22:04:38.080Z,5.67
2019-05-23T22:07:04.390Z,4.90
2019-05-23T22:09:31.510Z,5.70
2019-05-23T22:11:57.879Z,6.03
2019-05-23T22:14:24.094Z,5.30
2019-05-23T22:16:50.740Z,7.23
2019-05-23T22:19:18.909Z,7.47
2019-05-23T22:21:45.078Z,5.00
2019-05-23T22:24:12.234Z,4.97
2019-05-23T22:26:38.495Z,5.17
2019-05-23T22:29:06.061Z,5.40
2019-05-23T22:31:32.231Z,5.80
2019-05-23T22:34:03.173Z,7.10
2019-05-23T22:36:29.341Z,5.17
2019-05-23T22:38:55.600Z,4.63
2019-05-23T22:41:21.746Z,7.07
2019-05-23T22:43:47.906Z,5.07
2019-05-23T22:46:14.700Z,6.27
2019-05-23T22:48:40.876Z,7.10
2019-05-23T22:51:07.144Z,7.17
2019-05-23T22:53:33.307Z,5.83
2019-05-23T22:55:59.482Z,9.47
2019-05-23T22:58:25.635Z,5.97
2019-05-23T23:00:52.191Z,5.27
2019-05-23T23:03:18.369Z,5.50
2019-05-23T23:05:44.779Z,5.93
2019-05-23T23:08:11.593Z,6.13
2019-05-23T23:10:38.344Z,7.73
2019-05-23T23:13:04.815Z,6.40
2019-05-23T23:15:32.057Z,5.90
2019-05-23T23:17:58.337Z,6.63
2019-05-23T23:20:24.768Z,6.40
2019-05-23T23:22:50.914Z,8.70
2019-05-23T23:25:17.072Z,5.90
2019-05-23T23:27:43.286Z,5.97
2019-05-23T23:30:11.571Z,8.43
2019-05-23T23:32:38.059Z,4.93
2019-05-23T23:35:05.409Z,6.73
2019-05-23T23:37:31.558Z,5.87
2019-05-23T23:39:57.772Z,5.10
2019-05-23T23:42:24.004Z,5.93
2019-05-23T23:44:50.434Z,6.57
2019-05-23T23:47:35.140Z,6.30
2019-05-23T23:50:21.565Z,5.97
2019-05-23T23:53:06.304Z,6.23
2019-05-23T23:55:51.196Z,10.00
2019-05-23T23:58:17.449Z,6.07
